createdAt,value
2022-11-22T00:00:45.738Z,35.97
2022-11-22T00:03:13.277Z,39.63
2022-11-22T00:05:40.785Z,36.15
2022-11-22T00:08:08.918Z,34.10
2022-11-22T00:10:36.393Z,31.88
2022-11-22T00:13:04.870Z,34.85
2022-11-22T00:15:32.429Z,33.95
2022-11-22T00:18:00.091Z,32.90
2022-11-22T00:20:28.158Z,32.72
2022-11-22T00:22:57.258Z,33.03
2022-11-22T00:25:24.888Z,29.38
2022-11-22T00:27:52.792Z,33.25
2022-11-22T00:30:20.609Z,34.47
2022-11-22T00:32:48.306Z,36.83
2022-11-22T00:35:15.783Z,33.78
2022-11-22T00:37:43.333Z,34.65
2022-11-22T00:40:11.114Z,34.00
2022-11-22T00:42:38.620Z,36.30
2022-11-22T00:45:06.585Z,38.60
2022-11-22T00:47:34.092Z,38.55
2022-11-22T00:50:01.545Z,36.85
2022-11-22T00:52:29.002Z,42.28
2022-11-22T00:54:56.622Z,36.45
2022-11-22T00:57:24.103Z,38.92
2022-11-22T00:59:51.985Z,32.70
2022-11-22T01:02:19.513Z,36.83
2022-11-22T01:04:47.422Z,33.33
2022-11-22T01:07:15.019Z,36.67
2022-11-22T01:09:42.613Z,36.20
2022-11-22T01:12:10.396Z,37.53
2022-11-22T01:14:37.914Z,35.20
2022-11-22T01:17:05.514Z,31.52
2022-11-22T01:19:33.155Z,31.00
2022-11-22T01:22:00.692Z,34.97
2022-11-22T01:24:28.242Z,31.33
2022-11-22T01:26:56.073Z,32.58
2022-11-22T01:29:24.022Z,30.55
2022-11-22T01:31:51.451Z,33.25
2022-11-22T01:34:19.067Z,31.48
2022-11-22T01:36:46.535Z,28.05
2022-11-22T01:39:13.969Z,33.80
2022-11-22T01:41:41.445Z,32.05
2022-11-22T01:44:42.709Z,30.40
2022-11-22T01:47:21.434Z,30.23
2022-11-22T01:49:54.309Z,32.22
2022-11-22T01:52:26.268Z,31.00
2022-11-22T01:55:06.840Z,31.52
2022-11-22T01:57:37.919Z,31.38
2022-11-22T02:00:09.373Z,33.17
2022-11-22T02:02:47.170Z,29.25
2022-11-22T02:05:18.235Z,30.75
2022-11-22T02:07:53.014Z,30.15
2022-11-22T02:10:25.193Z,31.80
2022-11-22T02:12:54.751Z,32.95
2022-11-22T02:15:22.178Z,34.80
2022-11-22T02:17:49.695Z,34.60
2022-11-22T02:20:18.047Z,32.63
2022-11-22T02:22:48.643Z,30.17
2022-11-22T02:25:21.579Z,29.77
2022-11-22T02:27:50.498Z,32.28
2022-11-22T02:30:18.367Z,30.10
2022-11-22T02:32:46.067Z,28.52
2022-11-22T02:35:26.622Z,27.45
2022-11-22T02:38:02.293Z,32.58
2022-11-22T02:40:40.514Z,29.05
2022-11-22T02:43:28.283Z,30.08
2022-11-22T02:45:56.173Z,31.63
2022-11-22T02:48:23.861Z,35.42
2022-11-22T02:50:51.376Z,31.27
2022-11-22T02:53:18.794Z,28.15
2022-11-22T02:55:46.271Z,30.13
2022-11-22T02:58:13.764Z,30.27
2022-11-22T03:00:41.358Z,37.85
2022-11-22T03:03:08.904Z,31.98
2022-11-22T03:05:36.319Z,29.10
2022-11-22T03:08:03.893Z,34.25
2022-11-22T03:10:31.740Z,32.92
2022-11-22T03:12:59.806Z,31.00
2022-11-22T03:15:27.230Z,35.05
2022-11-22T03:18:02.187Z,30.30
2022-11-22T03:20:30.595Z,30.77
2022-11-22T03:23:00.763Z,31.20
2022-11-22T03:25:28.795Z,29.35
2022-11-22T03:27:56.403Z,29.25
2022-11-22T03:30:23.853Z,32.55
2022-11-22T03:32:51.353Z,31.73
2022-11-22T03:35:18.890Z,29.90
2022-11-22T03:37:46.544Z,33.70
2022-11-22T03:40:14.083Z,30.80
2022-11-22T03:42:41.526Z,30.27
2022-11-22T03:45:09.390Z,29.45
2022-11-22T03:47:36.834Z,35.45
2022-11-22T03:50:05.618Z,31.15
2022-11-22T03:52:33.151Z,29.33
2022-11-22T03:55:00.633Z,29.70
2022-11-22T03:57:28.256Z,31.23
2022-11-22T03:59:55.744Z,32.42
2022-11-22T04:02:23.304Z,27.33
2022-11-22T04:04:50.774Z,28.08
2022-11-22T04:07:18.572Z,27.50
2022-11-22T04:09:46.100Z,28.65
2022-11-22T04:12:13.644Z,29.27
2022-11-22T04:14:59.904Z,27.73
2022-11-22T04:17:45.913Z,26.73
2022-11-22T04:20:37.763Z,26.10
2022-11-22T04:23:07.924Z,23.90
2022-11-22T04:25:37.675Z,25.25
2022-11-22T04:28:07.040Z,25.40
2022-11-22T04:30:55.035Z,25.05
2022-11-22T04:33:23.512Z,27.45
2022-11-22T04:35:52.113Z,29.08
2022-11-22T04:38:19.583Z,25.80
2022-11-22T04:40:47.294Z,26.25
2022-11-22T04:43:41.547Z,26.90
2022-11-22T04:48:37.174Z,28.42
2022-11-22T04:51:24.415Z,29.80
2022-11-22T04:53:52.003Z,30.23
2022-11-22T04:56:19.522Z,29.67
2022-11-22T04:58:47.035Z,33.00
2022-11-22T05:01:14.670Z,28.25
2022-11-22T05:03:42.172Z,27.02
2022-11-22T05:06:13.466Z,27.85
2022-11-22T05:08:41.012Z,31.27
2022-11-22T05:11:08.497Z,29.23
2022-11-22T05:13:38.992Z,30.40
2022-11-22T05:16:09.673Z,29.50
2022-11-22T05:18:37.930Z,30.55
2022-11-22T05:21:15.139Z,27.98
2022-11-22T05:23:54.671Z,27.05
2022-11-22T05:26:26.384Z,25.85
2022-11-22T05:28:54.284Z,27.17
2022-11-22T05:31:24.224Z,31.98
2022-11-22T05:33:53.973Z,25.42
2022-11-22T05:36:22.452Z,24.10
2022-11-22T05:38:50.242Z,24.85
2022-11-22T05:41:18.495Z,26.10
2022-11-22T05:43:46.186Z,27.70
2022-11-22T05:46:24.727Z,24.13
2022-11-22T05:48:54.826Z,23.58
2022-11-22T05:51:33.533Z,24.70
2022-11-22T05:54:02.505Z,26.52
2022-11-22T05:56:30.104Z,27.13
2022-11-22T05:58:57.713Z,26.00
2022-11-22T06:01:25.907Z,27.33
2022-11-22T06:03:54.563Z,25.70
2022-11-22T06:06:22.110Z,27.42
2022-11-22T06:08:51.307Z,29.58
2022-11-22T06:11:23.862Z,31.25
2022-11-22T06:13:53.626Z,36.70
2022-11-22T06:16:22.104Z,31.10
2022-11-22T06:18:50.174Z,29.75
2022-11-22T06:21:20.163Z,34.50
2022-11-22T06:23:47.698Z,30.80
2022-11-22T06:26:17.656Z,30.02
2022-11-22T06:28:46.694Z,30.45
2022-11-22T06:31:16.761Z,27.92
2022-11-22T06:33:44.921Z,31.08
2022-11-22T06:36:14.666Z,32.13
2022-11-22T06:38:43.509Z,31.23
2022-11-22T06:41:22.202Z,28.70
2022-11-22T06:43:51.235Z,30.73
2022-11-22T06:46:21.042Z,28.40
2022-11-22T06:48:49.267Z,30.63
2022-11-22T06:51:25.291Z,27.17
2022-11-22T06:53:56.715Z,30.45
2022-11-22T06:56:29.994Z,30.23
2022-11-22T06:58:58.052Z,33.58
2022-11-22T07:01:28.593Z,30.10
2022-11-22T07:03:58.703Z,28.70
2022-11-22T07:06:28.696Z,30.20
2022-11-22T07:08:56.227Z,29.75
2022-11-22T07:11:25.978Z,27.33
2022-11-22T07:13:54.904Z,31.65
2022-11-22T07:16:22.713Z,30.90
2022-11-22T07:18:50.665Z,29.70
2022-11-22T07:21:21.726Z,30.20
2022-11-22T07:23:51.561Z,31.25
2022-11-22T07:26:21.296Z,28.95
2022-11-22T07:28:49.160Z,35.63
2022-11-22T07:31:17.685Z,32.35
2022-11-22T07:33:45.391Z,32.55
2022-11-22T07:36:18.452Z,33.95
2022-11-22T07:38:46.506Z,29.17
2022-11-22T07:41:15.022Z,29.52
2022-11-22T07:43:42.650Z,30.65
2022-11-22T07:46:29.436Z,31.38
2022-11-22T07:49:01.578Z,34.22
2022-11-22T07:51:29.853Z,33.25
2022-11-22T07:54:00.185Z,33.03
2022-11-22T07:56:27.636Z,33.00
2022-11-22T07:58:55.304Z,29.60
2022-11-22T08:01:23.768Z,35.28
2022-11-22T08:03:51.412Z,30.40
2022-11-22T08:06:18.933Z,33.80
2022-11-22T08:08:46.505Z,30.55
2022-11-22T08:11:14.033Z,34.22
2022-11-22T08:13:41.767Z,31.42
2022-11-22T08:16:12.045Z,31.23
2022-11-22T08:18:40.739Z,27.83
2022-11-22T08:21:12.883Z,32.78
2022-11-22T08:23:41.861Z,31.95
2022-11-22T08:26:12.708Z,31.27
2022-11-22T08:28:41.270Z,30.65
2022-11-22T08:31:12.524Z,30.88
2022-11-22T08:33:41.115Z,30.17
2022-11-22T08:36:09.153Z,27.60
2022-11-22T08:38:36.832Z,31.17
2022-11-22T08:41:06.595Z,29.30
2022-11-22T08:43:34.485Z,27.60
2022-11-22T08:46:02.371Z,27.55
2022-11-22T08:48:32.156Z,28.02
2022-11-22T08:51:07.747Z,31.17
2022-11-22T08:53:38.503Z,30.08
2022-11-22T08:56:09.754Z,28.65
2022-11-22T08:58:38.085Z,27.75
2022-11-22T09:01:14.597Z,28.00
2022-11-22T09:03:43.162Z,25.52
2022-11-22T09:09:22.617Z,29.02
2022-11-22T09:11:50.769Z,26.48
2022-11-22T09:14:18.224Z,27.48
2022-11-22T09:16:45.699Z,27.42
2022-11-22T09:19:13.493Z,24.92
2022-11-22T09:21:40.934Z,27.10
2022-11-22T09:24:08.474Z,28.15
2022-11-22T09:26:36.124Z,28.67
2022-11-22T09:29:03.743Z,30.20
2022-11-22T09:31:31.533Z,23.13
2022-11-22T09:33:58.973Z,26.60
2022-11-22T09:36:26.774Z,26.20
2022-11-22T09:38:56.258Z,23.77
2022-11-22T09:41:42.712Z,22.67
2022-11-22T09:44:31.220Z,20.33
2022-11-22T09:47:21.372Z,23.08
2022-11-22T09:50:00.908Z,23.73
2022-11-22T09:52:38.564Z,25.70
2022-11-22T09:55:24.201Z,26.45
2022-11-22T09:58:06.113Z,23.05
2022-11-22T10:00:35.188Z,22.02
2022-11-22T10:03:05.234Z,26.92
2022-11-22T10:05:41.574Z,22.90
2022-11-22T10:08:20.774Z,22.90
2022-11-22T10:10:53.339Z,22.70
2022-11-22T10:13:28.692Z,24.83
2022-11-22T10:16:31.300Z,22.70
2022-11-22T10:19:16.931Z,23.00
2022-11-22T10:21:48.134Z,22.17
2022-11-22T10:24:18.471Z,25.40
2022-11-22T10:26:46.999Z,24.55
2022-11-22T10:29:14.454Z,23.60
2022-11-22T10:31:52.584Z,26.77
2022-11-22T10:34:32.148Z,27.30
2022-11-22T10:37:13.860Z,29.20
2022-11-22T10:39:55.720Z,29.83
2022-11-22T10:42:23.204Z,32.97
2022-11-22T10:45:22.854Z,30.02
2022-11-22T10:48:26.309Z,30.65
2022-11-22T10:51:19.493Z,30.98
2022-11-22T10:54:13.854Z,28.80
2022-11-22T10:59:38.572Z,30.25
2022-11-22T11:02:35.815Z,34.50
2022-11-22T11:05:09.194Z,28.75
2022-11-22T11:07:41.810Z,32.67
2022-11-22T11:10:27.851Z,30.98
2022-11-22T11:13:05.003Z,30.85
2022-11-22T11:15:44.867Z,31.80
2022-11-22T11:18:24.973Z,31.58
2022-11-22T11:20:53.829Z,31.92
2022-11-22T11:23:21.264Z,31.05
2022-11-22T11:25:49.552Z,30.00
2022-11-22T11:28:26.235Z,31.55
2022-11-22T11:31:08.169Z,35.35
2022-11-22T11:33:38.704Z,32.92
2022-11-22T11:36:14.406Z,43.30
2022-11-22T11:38:41.833Z,43.28
2022-11-22T11:41:40.213Z,43.22
2022-11-22T11:44:29.429Z,48.78
2022-11-22T11:46:57.732Z,41.03
2022-11-22T11:49:33.496Z,44.30
2022-11-22T11:52:08.760Z,46.20
2022-11-22T11:54:39.413Z,45.90
2022-11-22T11:57:30.912Z,45.08
2022-11-22T12:00:02.032Z,44.75
2022-11-22T12:02:42.937Z,44.40
2022-11-22T12:05:32.196Z,48.53
2022-11-22T12:08:01.340Z,45.42
2022-11-22T12:10:49.873Z,46.90
2022-11-22T12:14:04.672Z,45.13
2022-11-22T12:16:40.124Z,46.03
2022-11-22T12:19:38.474Z,41.42
2022-11-22T12:22:42.754Z,44.30
2022-11-22T12:25:40.653Z,42.60
2022-11-22T12:28:20.393Z,42.08
2022-11-22T12:31:14.806Z,37.97
2022-11-22T12:33:56.376Z,35.22
2022-11-22T12:36:40.274Z,37.78
2022-11-22T12:41:41.850Z,36.17
2022-11-22T12:44:16.804Z,40.50
2022-11-22T12:46:52.643Z,34.63
2022-11-22T12:49:49.480Z,32.20
2022-11-22T12:52:39.491Z,38.67
2022-11-22T12:55:23.964Z,37.10
2022-11-22T12:57:59.923Z,37.00
2022-11-22T13:00:32.470Z,35.03
2022-11-22T13:03:13.084Z,39.85
2022-11-22T13:05:46.123Z,37.65
2022-11-22T13:08:37.325Z,41.25
2022-11-22T13:11:40.283Z,38.35
2022-11-22T13:14:20.820Z,41.53
2022-11-22T13:16:51.884Z,40.53
2022-11-22T13:19:24.036Z,38.17
2022-11-22T13:22:36.142Z,39.10
2022-11-22T13:25:24.634Z,34.80
2022-11-22T13:27:53.282Z,37.25
2022-11-22T13:30:29.795Z,34.35
2022-11-22T13:33:00.964Z,37.50
2022-11-22T13:35:36.893Z,38.30
2022-11-22T13:38:15.184Z,37.00
2022-11-22T13:40:50.633Z,36.95
2022-11-22T13:43:22.350Z,36.38
2022-11-22T13:45:54.795Z,33.10
2022-11-22T13:48:40.855Z,35.33
2022-11-22T13:51:14.436Z,37.13
2022-11-22T13:53:44.144Z,35.28
2022-11-22T13:56:20.644Z,34.70
2022-11-22T13:58:51.046Z,34.22
2022-11-22T14:01:34.167Z,35.42
2022-11-22T14:04:16.906Z,34.88
2022-11-22T14:06:48.923Z,34.45
2022-11-22T14:09:55.085Z,33.20
2022-11-22T14:12:43.453Z,34.33
2022-11-22T14:15:11.026Z,32.05
2022-11-22T14:17:57.181Z,33.58
2022-11-22T14:20:53.041Z,34.30
2022-11-22T14:23:57.200Z,34.53
2022-11-22T14:26:50.924Z,32.80
2022-11-22T14:29:49.394Z,33.28
2022-11-22T14:32:23.851Z,28.70
2022-11-22T14:35:06.405Z,31.77
2022-11-22T14:37:43.964Z,31.90
2022-11-22T14:40:31.528Z,31.67
2022-11-22T14:43:02.357Z,31.92
2022-11-22T14:46:00.675Z,31.73
2022-11-22T14:48:35.543Z,29.58
2022-11-22T14:51:25.720Z,31.33
2022-11-22T14:54:01.213Z,29.98
2022-11-22T14:56:34.472Z,30.60
2022-11-22T14:59:34.581Z,29.20
2022-11-22T15:02:36.775Z,28.75
2022-11-22T15:09:13.451Z,27.77
2022-11-22T15:09:14.903Z,23.80
2022-11-22T15:11:32.666Z,29.48
2022-11-22T15:14:09.272Z,29.25
2022-11-22T15:57:27.580Z,25.45
2022-11-22T15:59:55.826Z,24.90
2022-11-22T16:02:27.792Z,26.35
2022-11-22T16:06:07.515Z,27.38
2022-11-22T16:07:55.788Z,25.55
2022-11-22T16:10:45.741Z,25.50
2022-11-22T16:13:34.974Z,29.17
2022-11-22T16:16:06.952Z,25.73
2022-11-22T16:18:35.753Z,26.05
2022-11-22T16:21:12.320Z,25.38
2022-11-22T16:23:41.236Z,26.95
2022-11-22T16:26:20.582Z,26.67
2022-11-22T16:28:51.400Z,25.80
2022-11-22T16:31:25.573Z,24.92
2022-11-22T16:33:54.399Z,26.38
2022-11-22T16:36:24.054Z,29.70
2022-11-22T16:38:51.918Z,26.63
2022-11-22T16:41:21.901Z,28.20
2022-11-22T16:43:53.065Z,26.40
2022-11-22T16:46:20.804Z,28.00
2022-11-22T16:48:48.471Z,28.02
2022-11-22T16:51:23.032Z,24.35
2022-11-22T16:53:53.349Z,25.58
2022-11-22T16:56:26.629Z,28.25
2022-11-22T16:58:56.573Z,31.98
2022-11-22T17:01:26.887Z,25.75
2022-11-22T17:03:56.847Z,27.83
2022-11-22T17:06:26.372Z,26.90
2022-11-22T17:08:56.110Z,32.38
2022-11-22T17:11:26.734Z,24.48
2022-11-22T17:13:54.283Z,24.33
2022-11-22T17:16:21.866Z,27.35
2022-11-22T17:18:49.358Z,27.17
2022-11-22T17:21:27.869Z,27.70
2022-11-22T17:24:03.122Z,27.42
2022-11-22T17:26:32.571Z,28.03
2022-11-22T17:29:00.052Z,30.63
2022-11-22T17:31:28.365Z,31.05
2022-11-22T17:33:58.373Z,29.45
2022-11-22T17:36:31.233Z,31.27
2022-11-22T17:39:00.308Z,30.63
2022-11-22T17:41:28.063Z,35.72
2022-11-22T17:43:55.846Z,36.95
2022-11-22T17:46:23.813Z,33.95
2022-11-22T17:48:57.876Z,35.28
2022-11-22T17:51:27.223Z,35.90
2022-11-22T17:53:55.573Z,38.85
2022-11-22T17:56:23.003Z,39.10
2022-11-22T17:58:50.812Z,37.08
2022-11-22T18:01:20.632Z,40.92
2022-11-22T18:03:48.464Z,45.13
2022-11-22T18:06:17.413Z,44.60
2022-11-22T18:08:47.287Z,40.17
2022-11-22T18:11:16.331Z,46.10
2022-11-22T18:13:44.401Z,37.00
2022-11-22T18:16:14.802Z,41.83
2022-11-22T18:18:58.460Z,42.70
2022-11-22T18:21:31.030Z,47.53
2022-11-22T18:23:59.385Z,42.17
2022-11-22T18:26:42.860Z,48.15
2022-11-22T18:32:00.821Z,47.83
2022-11-22T18:34:29.423Z,46.65
2022-11-22T18:37:01.974Z,44.20
2022-11-22T18:39:32.782Z,45.10
2022-11-22T18:42:00.954Z,44.25
2022-11-22T18:44:28.380Z,46.75
2022-11-22T18:46:55.980Z,46.38
2022-11-22T18:49:23.534Z,44.55
2022-11-22T18:51:51.089Z,44.33
2022-11-22T18:54:18.679Z,44.45
2022-11-22T18:56:46.213Z,41.47
2022-11-22T18:59:13.744Z,40.65
2022-11-22T19:01:41.933Z,44.60
2022-11-22T19:04:14.462Z,37.97
2022-11-22T19:06:43.037Z,39.78
2022-11-22T19:09:11.245Z,34.13
2022-11-22T19:11:38.938Z,32.90
2022-11-22T19:14:06.712Z,36.10
2022-11-22T19:16:34.193Z,40.13
2022-11-22T19:19:02.098Z,39.13
2022-11-22T19:21:30.460Z,40.00
2022-11-22T19:23:58.203Z,36.33
2022-11-22T19:26:27.413Z,40.45
2022-11-22T19:28:56.616Z,35.22
2022-11-22T19:31:27.968Z,41.60
2022-11-22T19:33:55.805Z,40.60
2022-11-22T19:40:30.036Z,36.70
2022-11-22T19:42:57.695Z,42.80
2022-11-22T19:45:25.159Z,38.60
2022-11-22T19:47:52.609Z,39.90
2022-11-22T19:50:21.178Z,35.20
2022-11-22T19:52:48.649Z,39.47
2022-11-22T19:55:16.287Z,42.97
2022-11-22T19:57:43.760Z,35.20
2022-11-22T20:00:11.878Z,37.83
2022-11-22T20:02:39.348Z,35.42
2022-11-22T20:05:07.018Z,37.17
2022-11-22T20:07:34.721Z,31.88
2022-11-22T20:10:04.455Z,32.95
2022-11-22T20:12:31.950Z,35.90
2022-11-22T20:14:59.429Z,35.60
2022-11-22T20:17:27.059Z,32.25
2022-11-22T20:19:54.579Z,33.60
2022-11-22T20:22:22.250Z,32.33
2022-11-22T20:24:49.787Z,30.40
2022-11-22T20:27:24.374Z,30.48
2022-11-22T20:29:52.235Z,31.20
2022-11-22T20:32:19.850Z,30.00
2022-11-22T20:34:47.520Z,27.98
2022-11-22T20:37:15.109Z,30.95
2022-11-22T20:39:42.455Z,30.25
2022-11-22T20:42:33.758Z,31.02
2022-11-22T20:44:57.559Z,29.17
2022-11-22T20:47:25.207Z,29.15
2022-11-22T20:49:52.655Z,33.22
2022-11-22T20:52:20.630Z,28.88
2022-11-22T20:54:50.728Z,30.15
2022-11-22T20:57:18.300Z,28.65
2022-11-22T20:59:45.830Z,28.42
2022-11-22T21:02:13.239Z,27.30
2022-11-22T21:04:40.799Z,25.98
2022-11-22T21:07:08.246Z,27.65
2022-11-22T21:09:36.005Z,24.67
2022-11-22T21:12:03.879Z,26.55
2022-11-22T21:14:31.662Z,27.05
2022-11-22T21:17:16.300Z,26.27
2022-11-22T21:19:46.839Z,21.23
2022-11-22T21:22:14.349Z,23.27
2022-11-22T21:24:41.930Z,22.75
2022-11-22T21:27:09.448Z,24.23
2022-11-22T21:29:36.955Z,21.92
2022-11-22T21:32:04.544Z,24.75
2022-11-22T21:34:32.205Z,21.15
2022-11-22T21:36:59.830Z,21.88
2022-11-22T21:39:27.330Z,21.70
2022-11-22T21:41:54.995Z,20.73
2022-11-22T21:44:22.425Z,22.85
2022-11-22T21:46:51.359Z,20.45
2022-11-22T21:49:18.818Z,18.80
2022-11-22T21:51:48.045Z,20.35
2022-11-22T21:54:15.619Z,19.98
2022-11-22T21:56:43.031Z,17.25
2022-11-22T21:59:11.620Z,14.73
2022-11-22T22:01:39.255Z,15.10
2022-11-22T22:04:06.909Z,12.60
2022-11-22T22:06:34.335Z,15.82
2022-11-22T22:09:01.992Z,16.35
2022-11-22T22:11:29.398Z,14.27
2022-11-22T22:13:59.251Z,13.73
2022-11-22T22:16:26.819Z,13.02
2022-11-22T22:18:54.663Z,15.27
2022-11-22T22:21:22.246Z,11.45
2022-11-22T22:23:49.649Z,13.63
2022-11-22T22:26:18.080Z,13.65
2022-11-22T22:28:46.388Z,15.18
2022-11-22T22:31:17.534Z,13.45
2022-11-22T22:33:45.839Z,15.93
2022-11-22T22:36:14.398Z,15.48
2022-11-22T22:38:42.139Z,16.17
2022-11-22T22:41:12.381Z,14.18
2022-11-22T22:43:45.373Z,15.45
2022-11-22T22:46:21.311Z,16.83
2022-11-22T22:48:49.906Z,13.90
2022-11-22T22:51:20.590Z,15.45
2022-11-22T22:53:48.777Z,15.88
2022-11-22T22:56:18.401Z,15.93
2022-11-22T22:58:46.219Z,14.50
2022-11-22T23:01:15.285Z,16.00
2022-11-22T23:03:43.199Z,17.45
2022-11-22T23:06:12.070Z,12.95
2022-11-22T23:08:39.995Z,13.45
2022-11-22T23:11:11.255Z,13.65
2022-11-22T23:13:41.768Z,14.68
2022-11-22T23:16:11.839Z,12.35
2022-11-22T23:18:41.797Z,16.10
2022-11-22T23:21:12.759Z,13.43
2022-11-22T23:23:40.297Z,12.27
2022-11-22T23:26:10.189Z,14.05
2022-11-22T23:28:38.219Z,14.20
2022-11-22T23:31:11.657Z,13.95
2022-11-22T23:33:39.449Z,14.35
2022-11-22T23:36:09.594Z,15.95
2022-11-22T23:38:37.091Z,15.38
2022-11-22T23:41:05.292Z,15.40
2022-11-22T23:43:32.948Z,13.30
2022-11-22T23:46:00.481Z,15.90
2022-11-22T23:48:28.131Z,15.95
2022-11-22T23:50:55.911Z,17.80
2022-11-22T23:53:23.445Z,16.17
2022-11-22T23:55:50.988Z,21.75
2022-11-22T23:58:18.620Z,16.05
